createdAt,value
2023-04-07T00:02:02.347Z,9.82
2023-04-07T00:04:29.185Z,10.98
2023-04-07T00:06:56.094Z,11.25
2023-04-07T00:09:22.675Z,11.85
2023-04-07T00:11:49.132Z,10.73
2023-04-07T00:14:15.573Z,10.70
2023-04-07T00:16:42.171Z,11.07
2023-04-07T00:19:08.732Z,11.23
2023-04-07T00:21:35.311Z,11.05
2023-04-07T00:24:01.879Z,10.93
2023-04-07T00:26:31.419Z,10.23
2023-04-07T00:28:59.110Z,10.95
2023-04-07T00:31:25.830Z,12.18
2023-04-07T00:33:54.265Z,11.35
2023-04-07T00:36:21.325Z,10.80
2023-04-07T00:38:47.768Z,10.80
2023-04-07T00:41:14.318Z,9.82
2023-04-07T00:43:40.848Z,10.18
2023-04-07T00:46:07.513Z,9.70
2023-04-07T00:48:34.311Z,10.18
2023-04-07T00:51:00.856Z,9.40
2023-04-07T00:53:27.488Z,9.30
2023-04-07T00:55:54.145Z,10.52
2023-04-07T00:58:20.703Z,10.30
2023-04-07T01:00:57.118Z,9.68
2023-04-07T01:03:34.099Z,8.20
2023-04-07T01:06:02.476Z,9.50
2023-04-07T01:08:28.901Z,8.73
2023-04-07T01:11:22.424Z,10.38
2023-04-07T01:13:50.814Z,8.13
2023-04-07T01:16:39.807Z,8.70
2023-04-07T01:19:39.400Z,8.32
2023-04-07T01:22:14.372Z,8.40
2023-04-07T01:25:18.817Z,8.73
2023-04-07T01:28:04.036Z,7.82
2023-04-07T01:30:33.330Z,9.27
2023-04-07T01:35:28.119Z,9.15
2023-04-07T01:37:56.062Z,8.70
2023-04-07T01:40:22.919Z,8.60
2023-04-07T01:42:50.276Z,8.93
2023-04-07T01:45:17.457Z,9.27
2023-04-07T01:47:44.342Z,8.70
2023-04-07T01:50:12.172Z,8.93
2023-04-07T01:52:40.086Z,8.43
2023-04-07T01:55:07.341Z,9.45
2023-04-07T01:57:37.960Z,8.02
2023-04-07T02:00:12.248Z,8.63
2023-04-07T02:02:55.860Z,8.07
2023-04-07T02:05:22.802Z,8.27
2023-04-07T02:07:56.055Z,7.97
2023-04-07T02:10:24.589Z,8.18
2023-04-07T02:15:20.911Z,7.88
2023-04-07T02:17:52.998Z,8.52
2023-04-07T02:20:20.487Z,7.70
2023-04-07T02:22:47.977Z,8.05
2023-04-07T02:25:28.023Z,7.95
2023-04-07T02:27:55.539Z,8.00
2023-04-07T02:30:22.361Z,8.32
2023-04-07T02:32:50.060Z,8.27
2023-04-07T02:35:16.727Z,8.48
2023-04-07T02:37:44.421Z,8.05
2023-04-07T02:40:11.165Z,7.82
2023-04-07T02:42:37.813Z,8.45
2023-04-07T02:45:05.216Z,7.97
2023-04-07T02:47:32.000Z,8.20
2023-04-07T02:49:58.557Z,8.13
2023-04-07T02:52:25.355Z,8.30
2023-04-07T02:54:53.136Z,7.93
2023-04-07T02:57:23.149Z,8.38
2023-04-07T02:59:52.837Z,8.20
2023-04-07T03:02:19.360Z,8.35
2023-04-07T03:04:46.032Z,8.50
2023-04-07T03:07:12.612Z,8.38
2023-04-07T03:09:40.057Z,7.80
2023-04-07T03:12:06.586Z,8.20
2023-04-07T03:14:36.053Z,8.25
2023-04-07T03:17:03.670Z,8.18
2023-04-07T03:19:30.909Z,8.73
2023-04-07T03:21:57.439Z,7.85
2023-04-07T03:24:23.990Z,8.48
2023-04-07T03:26:51.706Z,7.97
2023-04-07T03:29:25.779Z,8.18
2023-04-07T03:31:52.707Z,7.63
2023-04-07T03:34:23.292Z,7.60
2023-04-07T03:36:49.993Z,7.93
2023-04-07T03:39:16.848Z,7.72
2023-04-07T03:41:44.211Z,7.90
2023-04-07T03:44:11.391Z,7.32
2023-04-07T03:46:38.465Z,7.13
2023-04-07T03:49:06.648Z,7.78
2023-04-07T03:51:34.038Z,8.10
2023-04-07T03:54:02.850Z,8.00
2023-04-07T03:56:33.875Z,7.95
2023-04-07T03:59:00.615Z,8.20
2023-04-07T04:01:34.599Z,8.23
2023-04-07T04:04:07.842Z,7.68
2023-04-07T04:06:34.945Z,8.55
2023-04-07T04:09:11.031Z,7.82
2023-04-07T04:11:43.832Z,7.95
2023-04-07T04:14:10.265Z,8.00
2023-04-07T04:16:37.578Z,8.52
2023-04-07T04:19:10.897Z,8.60
2023-04-07T04:21:37.417Z,7.90
2023-04-07T04:24:04.734Z,8.23
2023-04-07T04:26:31.581Z,8.43
2023-04-07T04:29:04.202Z,8.63
2023-04-07T04:31:30.870Z,8.38
2023-04-07T04:33:58.341Z,8.00
2023-04-07T04:36:25.020Z,8.82
2023-04-07T04:38:56.372Z,7.82
2023-04-07T04:41:23.461Z,8.52
2023-04-07T04:43:51.038Z,8.38
2023-04-07T04:46:21.944Z,8.32
2023-04-07T04:48:49.583Z,8.27
2023-04-07T04:51:17.518Z,7.72
2023-04-07T04:53:47.915Z,8.45
2023-04-07T04:56:14.536Z,8.48
2023-04-07T04:58:46.752Z,8.65
2023-04-07T05:01:38.314Z,8.43
2023-04-07T05:04:10.488Z,8.38
2023-04-07T05:06:40.478Z,8.55
2023-04-07T05:09:11.044Z,9.13
2023-04-07T05:11:43.808Z,8.68
2023-04-07T05:14:10.844Z,8.77
2023-04-07T05:16:42.360Z,8.52
2023-04-07T05:19:15.313Z,8.00
2023-04-07T05:21:41.998Z,9.32
2023-04-07T05:24:09.617Z,8.70
2023-04-07T05:26:36.940Z,8.27
2023-04-07T05:29:04.974Z,8.05
2023-04-07T05:31:31.581Z,8.18
2023-04-07T05:33:59.855Z,8.65
2023-04-07T05:36:31.684Z,7.88
2023-04-07T05:38:58.213Z,8.70
2023-04-07T05:41:26.946Z,8.87
2023-04-07T05:43:54.793Z,7.95
2023-04-07T05:46:22.822Z,8.57
2023-04-07T05:48:56.403Z,8.20
2023-04-07T05:51:24.774Z,8.75
2023-04-07T05:53:53.417Z,7.68
2023-04-07T05:58:49.337Z,7.80
2023-04-07T06:01:16.828Z,7.85
2023-04-07T06:03:43.408Z,7.82
2023-04-07T06:06:16.767Z,7.60
2023-04-07T06:08:45.337Z,7.47
2023-04-07T06:11:12.690Z,8.18
2023-04-07T06:13:39.134Z,7.25
2023-04-07T06:16:06.500Z,8.35
2023-04-07T06:18:32.980Z,7.78
2023-04-07T06:20:59.387Z,7.47
2023-04-07T06:23:26.159Z,7.28
2023-04-07T06:25:53.168Z,7.65
2023-04-07T06:28:19.764Z,7.30
2023-04-07T06:30:46.813Z,7.55
2023-04-07T06:33:14.725Z,7.03
2023-04-07T06:35:41.346Z,7.80
2023-04-07T06:38:08.080Z,7.47
2023-04-07T06:40:34.494Z,7.53
2023-04-07T06:43:01.270Z,7.13
2023-04-07T06:45:37.092Z,7.38
2023-04-07T06:48:03.651Z,7.07
2023-04-07T06:50:30.165Z,7.53
2023-04-07T06:52:56.652Z,7.07
2023-04-07T06:55:23.108Z,7.22
2023-04-07T06:57:52.179Z,7.43
2023-04-07T07:00:19.012Z,7.60
2023-04-07T07:02:45.706Z,8.02
2023-04-07T07:05:12.746Z,8.15
2023-04-07T07:07:39.166Z,8.52
2023-04-07T07:10:06.796Z,7.88
2023-04-07T07:12:33.419Z,8.80
2023-04-07T07:14:59.811Z,8.40
2023-04-07T07:17:26.496Z,8.50
2023-04-07T07:19:53.000Z,8.65
2023-04-07T07:22:19.524Z,8.75
2023-04-07T07:24:45.964Z,9.57
2023-04-07T07:27:12.366Z,8.52
2023-04-07T07:29:38.790Z,9.20
2023-04-07T07:32:05.612Z,8.73
2023-04-07T07:34:32.713Z,8.88
2023-04-07T07:36:59.829Z,8.93
2023-04-07T07:39:26.787Z,9.40
2023-04-07T07:41:53.252Z,9.13
2023-04-07T07:44:23.631Z,9.18
2023-04-07T07:46:51.373Z,9.35
2023-04-07T07:49:17.925Z,9.70
2023-04-07T07:51:46.070Z,9.68
2023-04-07T07:54:12.780Z,10.80
2023-04-07T07:56:39.235Z,10.25
2023-04-07T07:59:08.540Z,9.55
2023-04-07T08:04:01.613Z,9.73
2023-04-07T08:06:29.187Z,9.65
2023-04-07T08:08:55.856Z,9.80
2023-04-07T08:11:23.033Z,9.30
2023-04-07T08:13:49.785Z,10.43
2023-04-07T08:16:16.643Z,9.40
2023-04-07T08:18:43.168Z,9.02
2023-04-07T08:21:09.665Z,10.27
2023-04-07T08:23:36.315Z,9.30
2023-04-07T08:26:02.751Z,9.93
2023-04-07T08:28:29.224Z,9.52
2023-04-07T08:30:55.685Z,9.77
2023-04-07T08:33:22.222Z,9.50
2023-04-07T08:35:48.795Z,9.45
2023-04-07T08:38:15.371Z,9.27
2023-04-07T08:40:42.733Z,9.65
2023-04-07T08:43:10.305Z,10.48
2023-04-07T08:45:39.709Z,10.23
2023-04-07T08:48:17.751Z,9.85
2023-04-07T08:50:45.650Z,10.25
2023-04-07T08:53:14.684Z,10.23
2023-04-07T08:55:41.917Z,9.77
2023-04-07T08:58:12.330Z,10.52
2023-04-07T09:00:45.771Z,9.35
2023-04-07T09:03:12.386Z,9.68
2023-04-07T09:05:39.030Z,9.82
2023-04-07T09:08:05.577Z,9.50
2023-04-07T09:10:32.217Z,10.10
2023-04-07T09:12:59.499Z,9.45
2023-04-07T09:15:31.042Z,10.27
2023-04-07T09:17:58.505Z,9.85
2023-04-07T09:20:25.650Z,9.88
2023-04-07T09:22:52.144Z,9.75
2023-04-07T09:25:22.625Z,9.23
2023-04-07T09:27:59.625Z,9.18
2023-04-07T09:30:27.289Z,8.95
2023-04-07T09:32:54.125Z,9.77
2023-04-07T09:35:23.029Z,9.75
2023-04-07T09:38:06.871Z,9.02
2023-04-07T09:40:33.878Z,9.50
2023-04-07T09:43:00.545Z,8.90
2023-04-07T09:45:34.594Z,8.68
2023-04-07T09:48:10.782Z,8.90
2023-04-07T09:50:40.005Z,8.30
2023-04-07T09:55:33.885Z,7.57
2023-04-07T09:58:00.842Z,7.75
2023-04-07T10:00:27.356Z,8.07
2023-04-07T10:02:54.238Z,6.93
2023-04-07T10:05:23.582Z,7.15
2023-04-07T10:10:16.593Z,5.95
2023-04-07T10:12:43.233Z,6.43
2023-04-07T10:15:13.226Z,5.93
2023-04-07T10:17:40.937Z,5.95
2023-04-07T10:20:08.435Z,5.97
2023-04-07T10:22:36.018Z,5.90
2023-04-07T10:25:07.152Z,5.68
2023-04-07T10:27:56.527Z,6.50
2023-04-07T10:30:31.604Z,6.22
2023-04-07T10:32:58.809Z,6.38
2023-04-07T10:35:25.834Z,6.18
2023-04-07T10:38:08.033Z,5.25
2023-04-07T10:40:35.579Z,5.38
2023-04-07T10:43:02.438Z,5.57
2023-04-07T10:45:48.296Z,6.60
2023-04-07T10:48:16.472Z,6.68
2023-04-07T10:50:42.946Z,6.18
2023-04-07T10:53:10.526Z,6.57
2023-04-07T10:55:46.617Z,6.75
2023-04-07T10:58:16.851Z,7.20
2023-04-07T11:01:03.557Z,7.30
2023-04-07T11:03:34.886Z,6.13
2023-04-07T11:06:05.092Z,5.90
2023-04-07T11:08:36.242Z,6.85
2023-04-07T11:11:08.893Z,7.22
2023-04-07T11:13:48.886Z,6.30
2023-04-07T11:16:20.103Z,4.82
2023-04-07T11:18:47.858Z,5.85
2023-04-07T11:21:19.123Z,6.57
2023-04-07T11:23:47.498Z,6.30
2023-04-07T11:26:15.929Z,6.68
2023-04-07T11:28:47.227Z,6.82
2023-04-07T11:31:22.022Z,8.15
2023-04-07T11:33:53.720Z,7.88
2023-04-07T11:36:30.845Z,8.13
2023-04-07T11:39:00.573Z,8.95
2023-04-07T11:41:30.334Z,8.82
2023-04-07T11:44:12.746Z,8.38
2023-04-07T11:46:59.770Z,8.40
2023-04-07T11:49:31.702Z,8.32
2023-04-07T11:52:00.739Z,8.00
2023-04-07T11:54:27.210Z,8.25
2023-04-07T11:56:55.806Z,8.77
2023-04-07T11:59:24.326Z,8.23
2023-04-07T12:01:53.002Z,8.90
2023-04-07T12:04:20.976Z,8.77
2023-04-07T12:06:48.502Z,7.18
2023-04-07T12:09:32.441Z,6.97
2023-04-07T12:11:59.252Z,5.75
2023-04-07T12:14:27.705Z,6.60
2023-04-07T12:16:57.505Z,6.47
2023-04-07T12:19:26.629Z,6.10
2023-04-07T12:21:53.106Z,6.57
2023-04-07T12:24:19.632Z,7.13
2023-04-07T12:26:46.119Z,6.78
2023-04-07T12:29:12.585Z,7.07
2023-04-07T12:31:39.050Z,7.35
2023-04-07T12:34:05.595Z,7.07
2023-04-07T12:36:32.151Z,7.05
2023-04-07T12:38:59.017Z,7.20
2023-04-07T12:41:25.780Z,7.50
2023-04-07T12:43:52.687Z,8.15
2023-04-07T12:46:19.837Z,6.53
2023-04-07T12:48:47.750Z,6.85
2023-04-07T12:51:14.220Z,6.43
2023-04-07T12:53:40.654Z,6.72
2023-04-07T12:56:07.312Z,6.65
2023-04-07T12:58:34.315Z,6.28
2023-04-07T13:01:00.796Z,5.30
2023-04-07T13:03:27.589Z,4.40
2023-04-07T13:05:55.255Z,3.88
2023-04-07T13:08:22.031Z,3.65
2023-04-07T13:10:48.672Z,4.32
2023-04-07T13:13:15.473Z,5.10
2023-04-07T13:15:41.957Z,4.43
2023-04-07T13:18:08.529Z,4.85
2023-04-07T13:20:34.975Z,5.03
2023-04-07T13:23:07.829Z,5.30
2023-04-07T13:25:36.446Z,5.65
2023-04-07T13:28:03.184Z,5.28
2023-04-07T13:30:29.651Z,5.50
2023-04-07T13:32:56.172Z,5.05
2023-04-07T13:35:23.852Z,5.15
2023-04-07T13:37:50.289Z,5.20
2023-04-07T13:40:16.729Z,4.85
2023-04-07T13:42:43.396Z,4.60
2023-04-07T13:45:09.974Z,5.00
2023-04-07T13:47:36.719Z,5.72
2023-04-07T13:50:03.987Z,5.15
2023-04-07T13:52:32.767Z,5.45
2023-04-07T13:54:59.257Z,4.97
2023-04-07T13:57:25.844Z,6.28
2023-04-07T13:59:55.694Z,6.30
2023-04-07T14:02:22.750Z,5.82
2023-04-07T14:04:49.269Z,6.50
2023-04-07T14:07:16.244Z,6.20
2023-04-07T14:09:42.851Z,6.47
2023-04-07T14:12:09.460Z,5.90
2023-04-07T14:14:37.523Z,6.80
2023-04-07T14:17:04.303Z,6.50
2023-04-07T14:19:30.819Z,7.88
2023-04-07T14:21:57.281Z,7.10
2023-04-07T14:24:23.872Z,6.93
2023-04-07T14:26:51.082Z,7.32
2023-04-07T14:29:17.730Z,7.45
2023-04-07T14:31:45.126Z,7.55
2023-04-07T14:34:11.821Z,8.20
2023-04-07T14:36:38.362Z,6.45
2023-04-07T14:39:04.786Z,6.47
2023-04-07T14:41:31.510Z,6.32
2023-04-07T14:43:58.477Z,4.80
2023-04-07T14:46:27.378Z,4.18
2023-04-07T14:51:21.907Z,4.43
2023-04-07T14:53:53.389Z,3.78
2023-04-07T14:56:21.234Z,3.08
2023-04-07T14:58:47.659Z,3.50
2023-04-07T15:01:14.085Z,3.20
2023-04-07T15:03:40.650Z,3.70
2023-04-07T15:06:08.681Z,3.47
2023-04-07T15:08:35.550Z,3.75
2023-04-07T15:11:05.649Z,3.75
2023-04-07T15:13:32.108Z,3.88
2023-04-07T15:16:11.891Z,4.45
2023-04-07T15:18:40.794Z,4.18
2023-04-07T15:21:08.776Z,4.55
2023-04-07T15:23:37.709Z,4.38
2023-04-07T15:26:05.530Z,4.53
2023-04-07T15:28:32.012Z,4.40
2023-04-07T15:30:59.254Z,4.90
2023-04-07T15:33:25.848Z,4.82
2023-04-07T15:35:52.306Z,4.43
2023-04-07T15:38:19.105Z,4.63
2023-04-07T15:40:46.109Z,5.07
2023-04-07T15:43:12.582Z,9.43
2023-04-07T15:45:43.174Z,4.85
2023-04-07T15:48:10.605Z,4.57
2023-04-07T15:50:37.294Z,4.50
2023-04-07T15:53:07.171Z,4.97
2023-04-07T15:55:34.244Z,4.70
2023-04-07T15:58:01.724Z,4.90
2023-04-07T16:00:29.623Z,4.82
2023-04-07T16:02:56.213Z,4.63
2023-04-07T16:05:22.814Z,5.20
2023-04-07T16:07:49.217Z,5.55
2023-04-07T16:10:19.479Z,5.18
2023-04-07T16:12:46.699Z,5.05
2023-04-07T16:15:13.458Z,5.03
2023-04-07T16:17:42.691Z,5.10
2023-04-07T16:22:42.207Z,4.95
2023-04-07T16:25:09.241Z,5.00
2023-04-07T16:27:36.247Z,5.00
2023-04-07T16:30:05.374Z,5.18
2023-04-07T16:32:32.670Z,5.70
2023-04-07T16:34:59.197Z,5.20
2023-04-07T16:37:26.136Z,5.72
2023-04-07T16:39:59.026Z,6.18
2023-04-07T16:42:29.002Z,5.60
2023-04-07T16:44:57.580Z,5.53
2023-04-07T16:47:25.689Z,4.93
2023-04-07T16:49:52.113Z,5.10
2023-04-07T16:52:20.564Z,4.55
2023-04-07T16:54:47.251Z,5.22
2023-04-07T16:57:13.727Z,5.35
2023-04-07T16:59:40.702Z,5.18
2023-04-07T17:02:12.579Z,5.20
2023-04-07T17:04:39.995Z,4.53
2023-04-07T17:07:06.831Z,3.78
2023-04-07T17:09:33.403Z,3.60
2023-04-07T17:12:01.093Z,3.50
2023-04-07T17:14:28.592Z,3.42
2023-04-07T17:16:54.991Z,2.90
2023-04-07T17:19:21.682Z,2.90
2023-04-07T17:21:48.219Z,3.22
2023-04-07T17:24:15.800Z,2.85
2023-04-07T17:26:48.824Z,2.80
2023-04-07T17:29:16.501Z,3.03
2023-04-07T17:31:43.023Z,3.60
2023-04-07T17:34:10.233Z,7.35
2023-04-07T17:36:37.596Z,3.50
2023-04-07T17:39:04.923Z,3.55
2023-04-07T17:41:34.321Z,3.30
2023-04-07T17:44:01.134Z,3.10
2023-04-07T17:46:27.689Z,3.35
2023-04-07T17:48:54.945Z,3.47
2023-04-07T17:51:21.414Z,3.30
2023-04-07T17:53:48.621Z,4.40
2023-04-07T17:56:15.374Z,4.18
2023-04-07T17:58:41.842Z,4.25
2023-04-07T18:01:11.490Z,4.07
2023-04-07T18:03:38.196Z,4.00
2023-04-07T18:06:05.058Z,3.90
2023-04-07T18:08:31.611Z,3.75
2023-04-07T18:10:58.059Z,3.95
2023-04-07T18:13:24.500Z,3.70
2023-04-07T18:15:51.026Z,3.55
2023-04-07T18:18:17.515Z,3.88
2023-04-07T18:20:43.993Z,3.97
2023-04-07T18:23:10.600Z,4.47
2023-04-07T18:25:37.127Z,4.30
2023-04-07T18:28:03.956Z,4.30
2023-04-07T18:30:30.499Z,3.60
2023-04-07T18:32:57.022Z,3.78
2023-04-07T18:35:23.569Z,3.88
2023-04-07T18:37:50.298Z,4.18
2023-04-07T18:40:16.748Z,3.83
2023-04-07T18:42:43.544Z,3.90
2023-04-07T18:45:10.301Z,3.90
2023-04-07T18:47:36.950Z,3.90
2023-04-07T18:50:04.950Z,3.92
2023-04-07T18:52:31.980Z,3.80
2023-04-07T18:54:58.881Z,4.20
2023-04-07T18:57:25.286Z,4.03
2023-04-07T18:59:52.780Z,3.80
2023-04-07T19:02:19.444Z,3.65
2023-04-07T19:04:45.994Z,3.75
2023-04-07T19:07:12.438Z,3.47
2023-04-07T19:09:39.768Z,3.30
2023-04-07T19:12:06.507Z,3.10
2023-04-07T19:14:33.029Z,3.00
2023-04-07T19:16:59.552Z,3.15
2023-04-07T19:19:26.365Z,3.22
2023-04-07T19:21:52.830Z,3.15
2023-04-07T19:24:19.323Z,3.20
2023-04-07T19:26:45.885Z,3.17
2023-04-07T19:29:12.429Z,3.00
2023-04-07T19:31:39.442Z,3.10
2023-04-07T19:34:06.216Z,2.63
2023-04-07T19:36:33.750Z,2.28
2023-04-07T19:39:00.249Z,2.42
2023-04-07T19:41:26.725Z,2.10
2023-04-07T19:43:53.343Z,1.90
2023-04-07T19:46:19.939Z,1.88
2023-04-07T19:48:46.802Z,1.65
2023-04-07T19:51:13.484Z,1.90
2023-04-07T19:53:39.972Z,1.73
2023-04-07T19:56:06.423Z,1.25
2023-04-07T19:58:34.216Z,1.70
2023-04-07T20:01:00.879Z,1.70
2023-04-07T20:03:27.541Z,1.63
2023-04-07T20:05:55.253Z,1.30
2023-04-07T20:08:21.723Z,1.63
2023-04-07T20:10:51.238Z,1.70
2023-04-07T20:13:18.679Z,1.80
2023-04-07T20:15:46.293Z,1.83
2023-04-07T20:18:12.973Z,2.00
2023-04-07T20:20:39.641Z,2.50
2023-04-07T20:23:06.416Z,2.60
